Time;durP1;ratioP1;P1;durP2;ratioP2;P2;SDS_P1;SDS_P2;PMS_P1;PMS_P2;Temp;Humidity;BMP_temperature;BMP_pressure;BME280_temperature;BME280_humidity;BME280_pressure;Samples;Min_cycle;Max_cycle;Signal;HPM_P1;HPM_P2
2022/06/22 00:02:39;;;;;;;15.63;11.30;;;;;;;18.16;91.07;97221.59;10457064;28;20097;-57
2022/06/22 00:07:44;;;;;;;16.23;11.65;;;;;;;18.28;90.28;97230.75;10456277;28;20074;-58
2022/06/22 00:12:48;;;;;;;16.77;12.70;;;;;;;18.37;90.41;97225.13;10497567;28;20057;-58
2022/06/22 00:17:48;;;;;;;17.15;12.82;;;;;;;18.44;90.30;97231.81;10437953;28;20063;-57
2022/06/22 00:22:49;;;;;;;20.95;14.38;;;;;;;18.47;90.24;97236.94;10414593;28;20044;-57
2022/06/22 00:27:49;;;;;;;20.27;13.32;;;;;;;18.47;90.24;97231.69;10447188;28;20071;-57
2022/06/22 00:32:58;;;;;;;19.60;15.45;;;;;;;18.44;90.47;97218.69;10452092;28;20075;-57
2022/06/22 00:37:57;;;;;;;24.85;15.98;;;;;;;18.43;90.76;97214.34;10454331;28;20055;-57
2022/06/22 00:42:57;;;;;;;21.80;16.25;;;;;;;18.46;90.63;97224.75;10455052;28;20065;-57
2022/06/22 00:48:04;;;;;;;20.83;16.17;;;;;;;18.47;90.66;97205.41;10451536;28;20055;-57
2022/06/22 00:53:13;;;;;;;21.98;15.55;;;;;;;18.52;90.34;97210.47;10455609;28;20055;-57
2022/06/22 00:58:38;;;;;;;20.52;14.00;;;;;;;18.33;90.28;97184.13;10450053;28;20054;-58
2022/06/22 01:03:50;;;;;;;18.52;14.70;;;;;;;18.44;90.21;97221.31;10414299;28;20907;-57
2022/06/22 01:09:13;;;;;;;19.67;14.85;;;;;;;18.44;90.44;97221.31;10463707;28;20063;-57
2022/06/22 01:14:34;;;;;;;20.92;14.80;;;;;;;18.40;90.33;97224.97;10497069;28;20059;-57
2022/06/22 01:19:59;;;;;;;19.52;15.43;;;;;;;18.33;90.83;97218.28;10497291;28;20058;-58
2022/06/22 01:25:16;;;;;;;20.25;15.27;;;;;;;18.18;91.74;97217.13;10493114;28;20058;-57
2022/06/22 01:30:21;;;;;;;21.58;15.70;;;;;;;18.02;92.13;97211.63;10419461;28;20064;-57
2022/06/22 01:35:26;;;;;;;19.67;15.02;;;;;;;18.04;91.99;97212.44;10412875;28;20067;-57
2022/06/22 01:40:49;;;;;;;21.02;14.38;;;;;;;18.07;91.98;97200.94;10411900;28;20060;-57
2022/06/22 01:46:02;;;;;;;22.15;15.00;;;;;;;18.06;92.08;97189.59;10415182;28;20052;-57
2022/06/22 01:51:35;;;;;;;20.17;14.95;;;;;;;17.90;93.25;97202.47;10404771;28;20063;-57
2022/06/22 01:56:44;;;;;;;22.92;15.45;;;;;;;17.89;93.27;97218.25;10402665;28;20063;-57
2022/06/22 02:01:55;;;;;;;21.60;15.90;;;;;;;17.70;94.67;97197.09;10473934;28;20096;-57
2022/06/22 02:12:42;;;;;;;21.10;15.00;;;;;;;17.52;94.49;97203.91;10504756;28;20075;-57
2022/06/22 02:17:44;;;;;;;21.08;14.93;;;;;;;17.37;94.00;97191.38;10506534;28;20059;-57
2022/06/22 02:22:43;;;;;;;23.48;16.13;;;;;;;17.40;93.62;97199.09;10506319;28;20030;-57
2022/06/22 02:27:42;;;;;;;21.20;15.07;;;;;;;17.30;93.61;97188.97;10472391;28;20062;-58
2022/06/22 02:32:43;;;;;;;25.35;17.85;;;;;;;17.26;93.95;97192.63;10429492;28;20076;-57
2022/06/22 02:37:50;;;;;;;24.10;16.52;;;;;;;17.09;95.32;97195.00;10421743;28;20055;-57
2022/06/22 02:48:25;;;;;;;23.58;14.63;;;;;;;16.71;97.85;97229.47;10420392;28;20060;-57
2022/06/22 02:53:34;;;;;;;20.40;13.27;;;;;;;16.73;97.13;97224.19;10418280;28;20056;-58
2022/06/22 02:58:36;;;;;;;22.92;15.55;;;;;;;16.73;97.10;97226.81;10445346;28;20130;-57
2022/06/22 03:03:35;;;;;;;21.02;14.40;;;;;;;16.83;96.65;97217.72;10501075;28;20063;-57
2022/06/22 03:08:35;;;;;;;21.35;13.57;;;;;;;16.90;96.23;97208.75;10464867;28;20040;-58
2022/06/22 03:13:44;;;;;;;18.63;13.88;;;;;;;17.05;95.93;97209.09;10501374;28;20066;-57
2022/06/22 03:18:44;;;;;;;22.48;14.10;;;;;;;17.12;95.57;97205.34;10500685;28;20051;-57
2022/06/22 03:24:13;;;;;;;20.73;14.80;;;;;;;17.20;95.19;97208.56;10488887;28;20059;-57
2022/06/22 03:29:32;;;;;;;27.48;17.30;;;;;;;17.22;95.70;97193.66;10393294;28;20075;-57
2022/06/22 03:34:37;;;;;;;22.42;16.35;;;;;;;17.26;95.84;97192.63;10458517;28;20055;-57
2022/06/22 03:39:42;;;;;;;22.35;15.50;;;;;;;17.34;95.72;97216.78;10458201;28;20075;-57
2022/06/22 03:45:14;;;;;;;25.58;17.23;;;;;;;17.48;95.62;97202.31;10457039;28;20067;-57
2022/06/22 03:50:32;;;;;;;23.27;16.10;;;;;;;17.59;95.31;97213.25;10459181;28;20063;-57
2022/06/22 03:55:37;;;;;;;22.45;16.25;;;;;;;17.76;94.80;97207.38;10430936;28;20075;-57
2022/06/22 04:00:38;;;;;;;21.33;15.43;;;;;;;18.02;94.50;97216.88;10443721;28;20165;-57
2022/06/22 04:05:47;;;;;;;21.70;15.82;;;;;;;18.07;93.76;97232.44;10459281;28;20058;-57
2022/06/22 04:10:58;;;;;;;22.55;16.02;;;;;;;18.23;93.47;97223.03;10483672;28;20442;-57
2022/06/22 04:16:07;;;;;;;23.00;15.45;;;;;;;18.04;93.65;97207.19;10501611;28;20063;-58
2022/06/22 04:21:14;;;;;;;26.25;16.50;;;;;;;18.42;92.87;97249.41;10497279;28;20051;-58
2022/06/22 04:26:25;;;;;;;22.05;15.18;;;;;;;18.54;92.28;97206.88;10451568;28;20060;-57
2022/06/22 04:31:29;;;;;;;24.15;17.17;;;;;;;18.80;91.35;97226.81;10431279;28;20526;-57
2022/06/22 04:36:38;;;;;;;21.55;15.70;;;;;;;18.79;90.69;97219.03;10456870;28;20064;-57
2022/06/22 04:41:39;;;;;;;25.57;16.90;;;;;;;18.90;89.97;97232.56;10433090;28;20059;-58
2022/06/22 04:46:43;;;;;;;22.90;15.07;;;;;;;19.08;89.42;97237.94;10444729;28;20058;-57
2022/06/22 04:51:48;;;;;;;17.77;14.18;;;;;;;19.13;88.35;97257.00;10461565;28;20059;-57
2022/06/22 04:56:50;;;;;;;19.00;14.35;;;;;;;19.36;88.02;97258.63;10395091;28;20144;-57
2022/06/22 05:01:51;;;;;;;19.98;13.75;;;;;;;19.67;87.50;97268.66;10431489;28;20200;-57
2022/06/22 05:07:27;;;;;;;18.98;13.25;;;;;;;19.93;86.04;97250.81;10460974;28;20056;-57
2022/06/22 05:12:29;;;;;;;17.15;12.77;;;;;;;20.23;85.09;97248.50;10455407;28;20056;-58
2022/06/22 05:17:32;;;;;;;18.10;12.32;;;;;;;20.45;83.65;97253.66;10468105;28;20510;-58
2022/06/22 05:22:30;;;;;;;22.25;13.90;;;;;;;20.30;83.90;97268.38;10443964;28;20059;-58
2022/06/22 05:27:42;;;;;;;19.30;14.32;;;;;;;20.00;85.16;97260.13;10402894;28;20050;-57
2022/06/22 05:32:49;;;;;;;24.15;14.73;;;;;;;20.06;84.93;97260.69;10478941;28;20071;-57
2022/06/22 05:37:52;;;;;;;21.17;15.43;;;;;;;20.22;84.34;97252.94;10460025;28;20052;-58
2022/06/22 05:42:52;;;;;;;21.85;14.43;;;;;;;20.33;83.33;97254.19;10476024;28;20051;-57
2022/06/22 05:47:53;;;;;;;15.48;12.80;;;;;;;20.58;83.03;97241.56;10437312;28;20056;-58
2022/06/22 05:52:59;;;;;;;16.90;12.40;;;;;;;20.95;81.57;97250.25;10460210;28;20531;-58
2022/06/22 05:58:10;;;;;;;16.55;11.90;;;;;;;21.18;78.41;97245.59;10451574;28;20470;-58
2022/06/22 06:03:30;;;;;;;15.18;11.95;;;;;;;21.45;77.95;97260.03;10497210;28;20058;-58
2022/06/22 06:08:54;;;;;;;15.30;12.13;;;;;;;21.65;77.31;97250.19;10465365;28;20043;-58
2022/06/22 06:14:11;;;;;;;16.58;12.13;;;;;;;21.83;76.39;97235.97;10466059;28;20059;-58
2022/06/22 06:19:12;;;;;;;18.63;12.25;;;;;;;22.08;76.90;97242.56;10477415;28;20040;-58
2022/06/22 06:24:15;;;;;;;15.73;11.75;;;;;;;22.31;73.61;97242.13;10418247;28;20066;-58
2022/06/22 06:29:23;;;;;;;15.57;11.80;;;;;;;22.17;74.55;97231.50;10430043;28;20068;-58
2022/06/22 06:34:27;;;;;;;14.45;11.20;;;;;;;22.14;75.22;97243.09;10489998;28;20490;-58
2022/06/22 06:39:32;;;;;;;15.55;10.52;;;;;;;22.26;74.51;97228.34;10437554;28;20060;-57
2022/06/22 06:44:37;;;;;;;15.73;11.20;;;;;;;22.57;74.65;97239.78;10462536;28;20058;-58
2022/06/22 06:49:41;;;;;;;13.75;10.55;;;;;;;22.76;73.84;97240.47;10401489;28;20588;-58
2022/06/22 06:54:50;;;;;;;15.80;10.27;;;;;;;23.04;70.99;97238.81;10421433;28;20060;-58
2022/06/22 06:59:53;;;;;;;17.23;10.80;;;;;;;23.07;70.18;97236.03;10441547;28;20125;-58
2022/06/22 07:04:52;;;;;;;13.27;9.68;;;;;;;23.33;70.69;97223.00;10445897;28;20052;-58
2022/06/22 07:09:55;;;;;;;14.27;9.63;;;;;;;23.73;68.14;97233.81;10453478;28;20526;-57
2022/06/22 07:14:55;;;;;;;12.93;8.93;;;;;;;24.15;66.32;97224.09;10424831;28;20083;-58
2022/06/22 07:19:59;;;;;;;15.43;9.45;;;;;;;24.15;64.68;97229.41;10436678;28;20047;-58
2022/06/22 07:25:04;;;;;;;13.52;8.13;;;;;;;24.21;64.78;97218.41;10457642;28;20062;-58
2022/06/22 07:30:20;;;;;;;14.90;9.85;;;;;;;24.58;63.21;97224.81;10459257;28;20075;-58
2022/06/22 07:35:36;;;;;;;11.98;9.48;;;;;;;24.99;62.15;97218.56;10468947;28;20062;-58
2022/06/22 07:40:39;;;;;;;13.70;9.60;;;;;;;25.48;60.01;97214.31;10480855;28;20056;-58
2022/06/22 07:45:38;;;;;;;12.13;8.80;;;;;;;26.07;57.46;97195.94;10437580;28;20056;-58
2022/06/22 07:50:45;;;;;;;13.27;9.48;;;;;;;26.32;57.05;97232.28;10416126;28;20068;-58
2022/06/22 07:55:57;;;;;;;10.38;8.18;;;;;;;26.30;56.36;97236.84;10415998;28;20060;-58
2022/06/22 08:01:04;;;;;;;11.25;7.65;;;;;;;26.30;54.58;97239.53;10415588;28;20060;-58
2022/06/22 08:06:10;;;;;;;11.07;8.70;;;;;;;26.52;56.06;97237.94;10415446;28;20479;-58
2022/06/22 08:11:27;;;;;;;18.92;10.00;;;;;;;26.67;53.33;97247.41;10452065;28;20082;-58
2022/06/22 08:16:36;;;;;;;11.35;8.77;;;;;;;26.58;53.63;97222.38;10497818;28;20047;-58
2022/06/22 08:21:43;;;;;;;12.13;8.93;;;;;;;26.67;54.22;97231.44;10440206;28;20121;-58
2022/06/22 08:26:42;;;;;;;12.30;8.30;;;;;;;26.72;55.57;97239.09;10486226;28;20059;-58
2022/06/22 08:31:54;;;;;;;13.52;8.38;;;;;;;26.52;55.06;97236.13;10480986;28;20071;-58
2022/06/22 08:36:58;;;;;;;13.10;8.82;;;;;;;26.52;54.71;97232.59;10497384;28;20074;-58
2022/06/22 08:42:22;;;;;;;10.82;8.73;;;;;;;26.73;55.85;97211.53;10477302;28;20058;-58
2022/06/22 08:47:30;;;;;;;11.35;8.95;;;;;;;26.93;54.87;97200.25;10449634;28;20071;-58
2022/06/22 08:52:41;;;;;;;12.20;9.00;;;;;;;26.97;53.91;97198.19;10412208;28;20095;-58
2022/06/22 08:57:48;;;;;;;13.13;9.88;;;;;;;26.86;53.83;97192.84;10452830;28;20047;-58
2022/06/22 09:03:16;;;;;;;13.77;10.18;;;;;;;26.41;53.91;97193.47;10467074;28;20450;-58
2022/06/22 09:08:30;;;;;;;15.30;10.85;;;;;;;26.74;54.55;97186.59;10435542;28;20479;-58
2022/06/22 09:13:39;;;;;;;14.07;9.98;;;;;;;27.36;52.47;97170.28;10432121;28;20115;-58
2022/06/22 09:19:00;;;;;;;14.43;9.98;;;;;;;27.74;51.07;97176.25;10440414;28;20060;-58
2022/06/22 09:24:04;;;;;;;11.93;9.35;;;;;;;28.02;48.12;97156.19;10437765;28;20086;-58
2022/06/22 09:29:41;;;;;;;15.15;10.90;;;;;;;28.14;49.86;97163.22;10441558;28;20456;-58
2022/06/22 09:35:23;;;;;;;13.73;9.88;;;;;;;27.67;51.19;97178.53;10445989;28;20055;-58
2022/06/22 09:40:31;;;;;;;14.05;10.80;;;;;;;27.30;52.63;97191.22;10393327;28;20080;-58
2022/06/22 09:45:49;;;;;;;12.65;10.15;;;;;;;27.11;52.26;97186.47;10452802;28;20044;-58
2022/06/22 09:50:48;;;;;;;13.25;10.13;;;;;;;27.23;53.81;97177.53;10456068;28;20086;-58
2022/06/22 10:01:27;;;;;;;14.05;10.70;;;;;;;27.35;52.29;97194.38;10458420;28;20070;-58
2022/06/22 10:06:44;;;;;;;14.73;9.68;;;;;;;27.56;52.19;97192.72;10458658;28;20056;-58
2022/06/22 10:12:11;;;;;;;12.25;9.25;;;;;;;27.73;51.12;97206.53;10465561;28;20063;-58
2022/06/22 10:17:45;;;;;;;11.30;8.75;;;;;;;27.69;50.45;97221.09;10438701;28;20519;-58
2022/06/22 10:23:05;;;;;;;10.10;7.50;;;;;;;27.11;51.52;97237.94;10458600;28;20561;-58
2022/06/22 10:28:55;;;;;;;11.15;7.30;;;;;;;27.12;51.03;97238.78;10462830;28;20056;-58
2022/06/22 10:33:56;;;;;;;;;;;;;;;27.03;51.06;97239.50;10291681;28;20058;-58
2022/06/22 10:39:16;;;;;;;11.00;6.18;;;;;;;26.98;50.15;97235.38;10431416;28;20022;-58
2022/06/22 10:50:02;;;;;;;8.93;6.47;;;;;;;26.97;48.72;97243.47;10451231;28;20491;-58
2022/06/22 10:55:04;;;;;;;9.48;6.38;;;;;;;27.17;47.31;97255.28;10418456;28;20087;-58
2022/06/22 11:00:06;;;;;;;9.40;6.55;;;;;;;26.85;47.32;97234.59;10459445;28;20475;-58
2022/06/22 11:05:20;;;;;;;8.05;6.15;;;;;;;26.43;48.65;97223.50;10458810;28;20448;-58
2022/06/22 11:11:00;;;;;;;8.13;5.72;;;;;;;26.63;47.98;97229.13;10427327;28;20531;-58
2022/06/22 11:16:05;;;;;;;10.48;6.22;;;;;;;26.58;48.05;97227.69;10457672;28;20083;-58
2022/06/22 11:21:13;;;;;;;10.95;5.65;;;;;;;27.08;46.51;97246.16;10455616;28;20440;-58
2022/06/22 11:31:52;;;;;;;8.07;5.40;;;;;;;27.20;44.94;97234.56;10456952;28;19962;-58
2022/06/22 11:36:57;;;;;;;8.13;5.57;;;;;;;27.53;44.68;97219.63;10430423;28;20063;-58
2022/06/22 11:42:17;;;;;;;9.57;5.22;;;;;;;27.89;43.14;97214.16;10457304;28;20142;-58
2022/06/22 11:47:32;;;;;;;10.05;6.25;;;;;;;28.29;42.93;97200.28;10450978;28;20082;-58
2022/06/22 11:52:54;;;;;;;9.60;5.82;;;;;;;28.90;42.07;97195.22;10455934;28;20063;-58
2022/06/22 11:58:02;;;;;;;11.50;5.65;;;;;;;29.26;40.34;97198.44;10455699;28;20482;-58
2022/06/22 12:03:26;;;;;;;10.07;6.20;;;;;;;28.99;40.87;97202.47;10472461;28;20530;-58
2022/06/22 12:08:43;;;;;;;9.10;5.75;;;;;;;28.64;42.01;97200.03;10453604;28;20490;-58
2022/06/22 12:19:35;;;;;;;8.32;5.80;;;;;;;28.99;42.06;97197.13;10444724;28;20059;-58
2022/06/22 12:24:40;;;;;;;11.00;6.35;;;;;;;29.42;40.78;97203.31;10444540;28;20070;-58
2022/06/22 12:29:47;;;;;;;8.82;6.53;;;;;;;29.41;42.34;97197.09;10440409;28;20076;-58
2022/06/22 12:35:36;;;;;;;9.05;6.20;;;;;;;29.60;40.24;97187.47;10451191;28;20487;-58
2022/06/22 12:40:44;;;;;;;10.67;6.83;;;;;;;28.58;42.95;97185.38;10425360;28;20059;-58
2022/06/22 12:45:52;;;;;;;11.32;7.00;;;;;;;28.33;43.45;97185.72;10455467;28;20055;-58
2022/06/22 12:51:07;;;;;;;10.13;6.68;;;;;;;28.21;44.02;97175.06;10437142;28;20568;-58
2022/06/22 12:56:15;;;;;;;11.35;7.00;;;;;;;28.50;44.47;97166.50;10455565;28;20483;-58
2022/06/22 13:01:15;;;;;;;10.32;7.03;;;;;;;28.28;44.70;97170.09;10448408;28;20055;-58
2022/06/22 13:06:15;;;;;;;8.93;7.13;;;;;;;27.80;45.68;97200.59;10451974;28;20060;-58
2022/06/22 13:11:17;;;;;;;9.65;6.43;;;;;;;27.32;46.87;97215.94;10452193;28;20060;-58
2022/06/22 13:16:22;;;;;;;10.13;6.90;;;;;;;27.09;46.76;97210.56;10454715;28;20483;-58
2022/06/22 13:21:33;;;;;;;8.77;6.95;;;;;;;27.41;46.86;97186.75;10453302;28;20060;-58
2022/06/22 13:26:44;;;;;;;10.35;6.90;;;;;;;28.10;47.49;97167.09;10454407;28;20474;-58
2022/06/22 13:31:46;;;;;;;10.48;7.05;;;;;;;28.82;47.25;97154.94;10454030;28;20083;-58
2022/06/22 13:37:09;;;;;;;11.90;7.32;;;;;;;29.42;46.82;97157.84;10452082;28;20067;-58
2022/06/22 13:42:32;;;;;;;11.52;8.13;;;;;;;29.87;48.33;97163.66;10458762;28;20055;-58
2022/06/22 13:48:04;;;;;;;11.27;8.18;;;;;;;30.16;47.18;97152.16;10440436;28;20051;-58
2022/06/22 13:53:17;;;;;;;9.25;7.55;;;;;;;30.47;49.19;97149.41;10461736;28;20079;-58
2022/06/22 13:58:35;;;;;;;13.57;8.13;;;;;;;30.69;46.52;97135.72;10441101;28;20052;-59
2022/06/22 14:03:35;;;;;;;10.40;8.15;;;;;;;30.83;46.99;97145.16;10425153;28;20063;-58
2022/06/22 14:08:37;;;;;;;12.20;7.78;;;;;;;30.84;45.44;97141.47;10441165;28;20067;-58
2022/06/22 14:13:53;;;;;;;9.38;7.43;;;;;;;30.90;44.13;97142.75;10460873;28;20056;-58
2022/06/22 14:19:10;;;;;;;10.25;7.10;;;;;;;31.02;43.16;97132.75;10458223;28;20509;-58
2022/06/22 14:24:31;;;;;;;11.15;7.50;;;;;;;31.06;43.76;97129.63;10459531;28;20542;-58
2022/06/22 14:29:33;;;;;;;10.73;7.65;;;;;;;31.10;42.67;97124.81;10437190;28;20128;-59
2022/06/22 14:34:58;;;;;;;14.48;8.48;;;;;;;30.94;43.08;97112.00;10458181;28;20059;-58
2022/06/22 14:40:09;;;;;;;12.40;8.43;;;;;;;30.69;43.12;97106.25;10447091;28;20068;-58
2022/06/22 14:45:16;;;;;;;13.60;8.77;;;;;;;30.00;43.79;97104.56;10418311;28;20059;-58
2022/06/22 14:50:35;;;;;;;13.25;7.88;;;;;;;29.29;45.00;97099.28;10458316;28;20118;-58
2022/06/22 14:55:48;;;;;;;13.30;9.07;;;;;;;29.20;45.41;97090.19;10444785;28;20479;-58
2022/06/22 15:00:57;;;;;;;17.48;9.40;;;;;;;29.00;49.27;97094.63;10441867;28;20071;-58
2022/06/22 15:06:21;;;;;;;15.15;9.57;;;;;;;28.75;49.91;97111.91;10451274;28;20075;-58
2022/06/22 15:17:26;;;;;;;10.75;8.10;;;;;;;29.34;47.81;97106.88;10446133;28;20431;-58
2022/06/22 15:22:47;;;;;;;16.30;8.98;;;;;;;29.50;47.98;97099.19;10460009;28;20468;-58
2022/06/22 15:28:01;;;;;;;12.43;8.85;;;;;;;29.26;47.25;97088.84;10443751;28;20056;-58
2022/06/22 15:33:09;;;;;;;10.38;8.23;;;;;;;29.33;48.52;97099.84;10441955;28;20103;-58
2022/06/22 15:38:19;;;;;;;12.13;8.40;;;;;;;29.52;47.40;97101.75;10450861;28;20052;-58
2022/06/22 15:43:24;;;;;;;12.15;8.68;;;;;;;29.26;47.46;97099.56;10442060;28;20055;-58
2022/06/22 15:48:39;;;;;;;13.95;9.50;;;;;;;29.37;48.44;97086.09;10470686;28;20059;-58
2022/06/22 15:53:46;;;;;;;12.85;8.57;;;;;;;29.39;47.83;97099.31;10469833;28;20067;-58
2022/06/22 15:58:51;;;;;;;12.07;8.80;;;;;;;29.00;47.65;97102.63;10492645;28;20107;-58
2022/06/22 16:04:13;;;;;;;14.73;8.90;;;;;;;28.96;48.74;97114.56;10475904;28;20074;-58
2022/06/22 16:09:22;;;;;;;13.80;9.40;;;;;;;28.80;48.11;97114.16;10466949;28;20114;-58
2022/06/22 16:14:52;;;;;;;14.45;9.25;;;;;;;28.87;49.97;97126.03;10394225;28;20080;-58
2022/06/22 16:20:05;;;;;;;13.63;8.70;;;;;;;28.73;49.94;97119.19;10412016;28;20064;-58
2022/06/22 16:25:10;;;;;;;13.65;9.88;;;;;;;28.79;50.21;97123.19;10412828;28;20064;-58
2022/06/22 16:30:09;;;;;;;14.93;10.10;;;;;;;28.64;50.48;97131.47;10411621;28;20068;-58
2022/06/22 16:35:17;;;;;;;14.10;9.45;;;;;;;28.12;52.58;97138.47;10411307;28;20056;-58
2022/06/22 16:40:28;;;;;;;12.07;9.68;;;;;;;28.12;54.10;97146.47;10453368;28;20051;-58
2022/06/22 16:45:33;;;;;;;13.75;9.40;;;;;;;28.20;53.01;97130.72;10453517;28;20058;-58
2022/06/22 16:51:03;;;;;;;14.32;10.07;;;;;;;28.31;54.11;97129.81;10453854;28;20534;-58
2022/06/22 16:56:04;;;;;;;13.80;9.63;;;;;;;28.36;53.30;97142.75;10453593;28;20098;-58
2022/06/22 17:01:21;;;;;;;14.35;9.57;;;;;;;28.29;53.68;97153.13;10453978;28;20048;-58
2022/06/22 17:06:33;;;;;;;19.20;12.10;;;;;;;28.01;55.35;97135.84;10495150;28;20954;-58
2022/06/22 17:11:39;;;;;;;14.43;10.13;;;;;;;27.76;57.35;97175.16;10426108;28;20530;-58
2022/06/22 17:16:50;;;;;;;15.25;9.98;;;;;;;27.38;59.92;97189.66;10438890;28;20059;-58
2022/06/22 17:21:52;;;;;;;14.23;11.95;;;;;;;27.12;62.01;97198.81;10467803;28;20090;-58
2022/06/22 17:27:04;;;;;;;16.95;12.23;;;;;;;26.68;63.74;97203.06;10505291;28;20059;-58
2022/06/22 17:32:15;;;;;;;15.70;12.07;;;;;;;26.38;64.70;97180.41;10504869;28;20077;-58
2022/06/22 17:37:29;;;;;;;16.23;11.80;;;;;;;26.12;65.89;97185.81;10482509;28;20501;-58
2022/06/22 17:42:44;;;;;;;13.93;11.23;;;;;;;25.69;67.08;97157.03;10462226;28;20066;-58
2022/06/22 17:48:03;;;;;;;17.40;12.23;;;;;;;25.67;68.09;97203.28;10438733;28;20060;-58
2022/06/22 17:53:16;;;;;;;16.58;12.30;;;;;;;25.45;68.21;97204.75;10424342;28;20430;-58
2022/06/22 17:58:34;;;;;;;15.38;11.45;;;;;;;25.21;68.61;97193.19;10424157;28;20055;-58
2022/06/22 18:03:45;;;;;;;14.80;11.27;;;;;;;24.93;69.23;97191.59;10467312;28;20043;-58
2022/06/22 18:09:10;;;;;;;14.57;11.20;;;;;;;24.56;70.58;97199.34;10495817;28;20068;-58
2022/06/22 18:14:18;;;;;;;15.73;11.30;;;;;;;24.27;71.90;97199.47;10465362;28;20059;-58
2022/06/22 18:19:25;;;;;;;15.65;12.02;;;;;;;24.05;72.85;97208.78;10465154;28;20631;-58
2022/06/22 18:24:28;;;;;;;17.60;12.20;;;;;;;23.85;73.34;97220.63;10463367;28;20064;-58
2022/06/22 18:29:39;;;;;;;17.75;12.82;;;;;;;23.74;73.94;97227.56;10462522;28;20075;-58
2022/06/22 18:35:18;;;;;;;17.35;14.27;;;;;;;23.55;74.89;97223.41;10463154;28;20054;-58
2022/06/22 18:46:00;;;;;;;17.20;11.40;;;;;;;23.18;74.51;97245.94;10430610;28;20055;-58
2022/06/22 18:51:07;;;;;;;17.70;12.18;;;;;;;23.07;75.08;97270.44;10461469;28;20059;-58
2022/06/22 18:56:18;;;;;;;17.50;12.55;;;;;;;22.93;76.31;97271.25;10459690;28;20068;-58
2022/06/22 19:01:25;;;;;;;24.10;13.07;;;;;;;22.84;77.56;97270.94;10453622;28;20070;-58
2022/06/22 19:06:52;;;;;;;21.17;14.38;;;;;;;22.73;77.98;97267.06;10501264;28;20055;-58
2022/06/22 19:11:57;;;;;;;19.38;13.05;;;;;;;22.63;78.90;97273.84;10426871;28;20067;-58
2022/06/22 19:17:05;;;;;;;19.08;12.45;;;;;;;22.58;78.57;97270.59;10418207;28;20060;-58
2022/06/22 19:22:46;;;;;;;15.85;11.63;;;;;;;22.51;78.42;97277.19;10417418;28;20070;-58
2022/06/22 19:27:58;;;;;;;17.10;11.32;;;;;;;22.43;78.29;97276.75;10388235;28;20068;-57
2022/06/22 19:33:00;;;;;;;17.92;11.52;;;;;;;22.43;78.12;97295.25;10417456;28;20519;-58
2022/06/22 19:38:29;;;;;;;13.65;10.57;;;;;;;22.32;77.91;97291.44;10415829;28;20127;-58
2022/06/22 19:43:35;;;;;;;15.30;10.87;;;;;;;22.33;77.92;97310.78;10415973;28;20060;-58
2022/06/22 19:48:47;;;;;;;15.88;11.43;;;;;;;22.27;77.91;97293.50;10415477;28;20322;-58
2022/06/22 19:53:59;;;;;;;18.00;11.45;;;;;;;22.18;78.45;97297.50;10415890;28;20060;-58
2022/06/22 19:58:58;;;;;;;15.95;10.93;;;;;;;22.02;78.35;97298.41;10416141;28;20058;-58
2022/06/22 20:04:26;;;;;;;15.02;11.18;;;;;;;22.05;78.18;97306.16;10465964;28;20096;-58
2022/06/22 20:09:32;;;;;;;19.10;11.30;;;;;;;21.83;78.31;97280.00;10471016;28;20052;-58
2022/06/22 20:15:05;;;;;;;17.08;11.52;;;;;;;21.99;78.53;97314.41;10499147;28;20066;-58
2022/06/22 20:20:05;;;;;;;21.88;12.70;;;;;;;21.83;81.21;97309.06;10457777;28;20067;-58
2022/06/22 20:25:36;;;;;;;21.33;13.38;;;;;;;21.74;81.95;97307.78;10447821;28;20878;-58
2022/06/22 20:30:46;;;;;;;19.48;13.55;;;;;;;21.67;82.14;97293.22;10425518;28;20079;-58
2022/06/22 20:36:03;;;;;;;17.70;12.75;;;;;;;21.57;83.43;97299.88;10455427;28;20487;-58
2022/06/22 20:46:52;;;;;;;17.50;11.95;;;;;;;21.38;84.11;97295.56;10470720;28;20535;-58
2022/06/22 20:52:16;;;;;;;21.55;13.25;;;;;;;21.34;84.13;97294.03;10498989;28;20067;-58
2022/06/22 20:57:42;;;;;;;18.73;12.70;;;;;;;21.12;85.41;97300.41;10500723;28;20055;-58
2022/06/22 21:02:48;;;;;;;21.33;13.05;;;;;;;20.96;85.83;97296.81;10490493;28;20414;-58
2022/06/22 21:07:47;;;;;;;19.52;13.25;;;;;;;20.93;85.68;97303.06;10500764;28;20047;-58
2022/06/22 21:13:02;;;;;;;19.45;12.82;;;;;;;20.82;85.71;97294.00;10500968;28;20028;-58
2022/06/22 21:18:10;;;;;;;17.85;12.40;;;;;;;20.80;85.45;97317.81;10481441;28;20028;-58
2022/06/22 21:23:24;;;;;;;22.67;14.00;;;;;;;20.79;85.00;97329.28;10429313;28;20056;-58
2022/06/22 21:28:31;;;;;;;20.25;14.18;;;;;;;20.77;84.83;97322.38;10416527;28;20336;-58
2022/06/22 21:33:30;;;;;;;22.50;15.15;;;;;;;20.71;84.78;97334.09;10416568;28;20075;-58
2022/06/22 21:38:43;;;;;;;20.70;14.27;;;;;;;20.66;84.63;97336.09;10415796;28;20052;-58
2022/06/22 21:43:50;;;;;;;20.20;14.07;;;;;;;20.62;84.72;97342.44;10415292;28;20464;-58
2022/06/22 21:49:02;;;;;;;21.52;14.07;;;;;;;20.53;85.26;97333.19;10445839;28;20119;-58
2022/06/22 21:54:44;;;;;;;19.83;13.20;;;;;;;20.46;85.44;97344.94;10453410;28;20071;-58
2022/06/22 22:00:07;;;;;;;19.98;11.63;;;;;;;20.38;85.33;97355.84;10447549;28;20071;-58
2022/06/22 22:05:18;;;;;;;18.42;12.15;;;;;;;20.27;85.43;97356.31;10434941;28;20063;-58
2022/06/22 22:10:20;;;;;;;19.17;11.73;;;;;;;20.17;85.35;97336.59;10461253;28;20755;-58
2022/06/22 22:15:27;;;;;;;17.85;11.50;;;;;;;20.08;86.60;97352.84;10426106;28;20064;-57
2022/06/22 22:20:40;;;;;;;22.45;13.75;;;;;;;19.97;87.00;97352.47;10417623;28;20059;-57
2022/06/22 22:25:44;;;;;;;20.77;13.27;;;;;;;19.71;88.83;97351.84;10447862;28;20063;-58
2022/06/22 22:30:52;;;;;;;22.95;14.18;;;;;;;19.62;89.13;97362.78;10456615;28;20075;-57
2022/06/22 22:35:52;;;;;;;18.23;12.93;;;;;;;19.41;91.01;97389.06;10460164;28;20068;-57
2022/06/22 22:40:55;;;;;;;20.10;13.13;;;;;;;19.30;90.83;97369.38;10460067;28;20055;-58
2022/06/22 22:45:59;;;;;;;23.10;14.93;;;;;;;19.17;91.99;97375.16;10460014;28;20512;-58
2022/06/22 22:50:58;;;;;;;24.83;14.07;;;;;;;19.07;92.73;97359.84;10459940;28;20056;-57
2022/06/22 22:56:04;;;;;;;20.00;13.45;;;;;;;18.97;92.82;97347.09;10464700;28;20051;-58
2022/06/22 23:01:15;;;;;;;22.05;14.45;;;;;;;19.09;92.50;97350.09;10453117;28;20043;-58
2022/06/22 23:06:17;;;;;;;20.10;13.02;;;;;;;19.12;91.95;97355.25;10455034;28;20107;-58
2022/06/22 23:11:25;;;;;;;22.85;14.60;;;;;;;18.93;91.90;97345.50;10452948;28;20048;-58
2022/06/22 23:16:36;;;;;;;22.10;14.43;;;;;;;19.01;92.00;97368.84;10450564;28;20055;-58
2022/06/22 23:21:41;;;;;;;27.48;15.95;;;;;;;18.97;92.20;97356.72;10431096;28;20128;-58
2022/06/22 23:26:46;;;;;;;21.88;15.07;;;;;;;18.94;92.47;97357.69;10455542;28;20114;-58
2022/06/22 23:32:26;;;;;;;22.27;12.32;;;;;;;18.92;92.87;97356.06;10453563;28;20676;-57
2022/06/22 23:37:30;;;;;;;21.52;14.73;;;;;;;18.82;93.37;97348.53;10453362;28;20070;-57
2022/06/22 23:42:34;;;;;;;13.73;8.20;;;;;;;18.74;91.78;97336.66;10458839;28;20067;-58
2022/06/22 23:52:56;;;;;;;11.95;7.40;;;;;;;18.59;88.81;97344.19;10455703;28;20059;-57
2022/06/22 23:57:58;;;;;;;13.55;8.43;;;;;;;18.46;87.84;97337.72;10455832;28;20059;-57
